createdAt,value
2019-05-28T00:01:31.109Z,61.55
2019-05-28T00:03:57.875Z,61.55
2019-05-28T00:06:24.667Z,62.71
2019-05-28T00:08:51.458Z,62.20
2019-05-28T00:11:18.308Z,61.57
2019-05-28T00:13:44.994Z,61.28
2019-05-28T00:16:11.698Z,60.85
2019-05-28T00:18:38.435Z,61.26
2019-05-28T00:21:05.217Z,60.89
2019-05-28T00:23:31.926Z,61.09
2019-05-28T00:25:58.787Z,60.60
2019-05-28T00:28:26.099Z,60.62
2019-05-28T00:30:52.875Z,61.58
2019-05-28T00:33:19.770Z,60.62
2019-05-28T00:35:46.567Z,62.46
2019-05-28T00:38:13.264Z,61.71
2019-05-28T00:40:39.999Z,60.61
2019-05-28T00:43:06.672Z,61.16
2019-05-28T00:45:33.507Z,62.03
2019-05-28T00:48:00.446Z,62.77
2019-05-28T00:50:27.224Z,63.04
2019-05-28T00:52:54.061Z,64.36
2019-05-28T00:55:20.894Z,63.77
2019-05-28T00:57:48.781Z,64.81
2019-05-28T01:00:36.184Z,63.71
2019-05-28T01:02:48.933Z,62.98
2019-05-28T01:05:15.936Z,61.79
2019-05-28T01:07:42.671Z,60.77
2019-05-28T01:10:09.821Z,60.39
2019-05-28T01:12:36.503Z,60.88
2019-05-28T01:15:06.938Z,60.99
2019-05-28T01:17:33.669Z,60.88
2019-05-28T01:20:00.414Z,61.33
2019-05-28T01:22:27.181Z,61.99
2019-05-28T01:24:53.933Z,61.70
2019-05-28T01:27:20.610Z,61.05
2019-05-28T01:29:47.316Z,61.28
2019-05-28T01:32:14.183Z,62.23
2019-05-28T01:34:40.872Z,61.86
2019-05-28T01:37:07.756Z,61.99
2019-05-28T01:39:34.490Z,62.09
2019-05-28T01:42:01.196Z,61.86
2019-05-28T01:44:27.991Z,63.67
2019-05-28T01:46:54.726Z,66.51
2019-05-28T01:49:21.421Z,66.45
2019-05-28T01:51:48.131Z,67.04
2019-05-28T01:54:14.883Z,66.98
2019-05-28T01:56:41.655Z,67.55
2019-05-28T01:59:08.367Z,66.90
2019-05-28T02:01:35.237Z,65.15
2019-05-28T02:04:01.921Z,64.25
2019-05-28T02:06:28.603Z,67.75
2019-05-28T02:08:55.407Z,67.16
2019-05-28T02:11:22.115Z,66.53
2019-05-28T02:13:48.919Z,69.41
2019-05-28T02:16:15.717Z,68.94
2019-05-28T02:18:43.549Z,68.30
2019-05-28T02:21:10.233Z,65.58
2019-05-28T02:23:37.083Z,67.74
2019-05-28T02:26:04.065Z,70.16
2019-05-28T02:28:30.769Z,69.95
2019-05-28T02:30:57.566Z,71.24
2019-05-28T02:33:24.230Z,71.01
2019-05-28T02:35:50.939Z,71.12
2019-05-28T02:38:17.723Z,72.23
2019-05-28T02:40:44.499Z,67.10
2019-05-28T02:43:11.273Z,67.10
2019-05-28T02:45:38.104Z,67.24
2019-05-28T02:48:04.898Z,67.73
2019-05-28T02:50:57.397Z,67.91
2019-05-28T02:53:24.121Z,68.61
2019-05-28T02:55:51.634Z,68.61
2019-05-28T02:58:18.607Z,67.94
2019-05-28T03:00:47.233Z,67.07
2019-05-28T03:03:14.639Z,66.84
2019-05-28T03:05:42.897Z,63.55
2019-05-28T03:08:10.882Z,67.42
2019-05-28T03:11:01.289Z,66.91
2019-05-28T03:13:07.186Z,64.24
2019-05-28T03:15:37.580Z,64.38
2019-05-28T03:18:07.959Z,66.04
2019-05-28T03:20:36.441Z,66.06
2019-05-28T03:23:03.466Z,67.37
2019-05-28T03:25:32.789Z,66.01
2019-05-28T03:27:59.578Z,68.96
2019-05-28T03:30:26.374Z,69.73
2019-05-28T03:32:53.327Z,69.05
2019-05-28T03:35:21.266Z,67.43
2019-05-28T03:37:49.000Z,67.44
2019-05-28T03:40:19.393Z,69.08
2019-05-28T03:42:46.270Z,66.28
2019-05-28T03:45:13.216Z,65.05
2019-05-28T03:47:39.982Z,64.90
2019-05-28T03:50:07.333Z,64.73
2019-05-28T03:52:34.054Z,64.44
2019-05-28T03:55:00.886Z,62.20
2019-05-28T03:57:27.690Z,61.21
2019-05-28T03:59:57.677Z,61.51
2019-05-28T04:02:24.162Z,61.84
2019-05-28T04:04:51.194Z,60.77
2019-05-28T04:07:17.990Z,61.59
2019-05-28T04:09:44.780Z,62.38
2019-05-28T04:12:11.554Z,61.37
2019-05-28T04:14:38.324Z,60.25
2019-05-28T04:17:05.247Z,60.25
2019-05-28T04:19:31.931Z,60.67
2019-05-28T04:21:58.717Z,61.13
2019-05-28T04:24:25.422Z,61.10
2019-05-28T04:26:52.218Z,60.99
2019-05-28T04:29:18.874Z,60.99
2019-05-28T04:31:45.671Z,61.15
2019-05-28T04:34:12.325Z,63.00
2019-05-28T04:36:39.047Z,61.68
2019-05-28T04:39:07.191Z,62.58
2019-05-28T04:41:33.900Z,61.41
2019-05-28T04:44:00.602Z,61.67
2019-05-28T04:46:27.349Z,61.71
2019-05-28T04:48:54.288Z,62.04
2019-05-28T04:51:21.013Z,62.21
2019-05-28T04:53:47.695Z,62.95
2019-05-28T04:56:14.687Z,63.62
2019-05-28T04:58:41.438Z,63.80
2019-05-28T05:01:09.166Z,65.05
2019-05-28T05:03:35.866Z,62.72
2019-05-28T05:06:02.829Z,62.07
2019-05-28T05:08:29.649Z,65.20
2019-05-28T05:10:56.310Z,62.55
2019-05-28T05:13:23.087Z,63.55
2019-05-28T05:15:49.768Z,61.68
2019-05-28T05:18:16.522Z,61.91
2019-05-28T05:20:43.466Z,61.51
2019-05-28T05:23:10.157Z,59.68
2019-05-28T05:25:36.938Z,60.33
2019-05-28T05:28:03.765Z,61.37
2019-05-28T05:30:30.458Z,57.72
2019-05-28T05:32:57.226Z,56.76
2019-05-28T05:35:24.103Z,54.37
2019-05-28T05:37:50.962Z,53.58
2019-05-28T05:40:18.482Z,56.39
2019-05-28T05:42:45.447Z,56.19
2019-05-28T05:45:12.447Z,54.82
2019-05-28T05:47:39.218Z,53.13
2019-05-28T05:50:06.444Z,51.13
2019-05-28T05:52:33.365Z,52.80
2019-05-28T05:55:00.183Z,48.63
2019-05-28T05:57:27.247Z,49.85
2019-05-28T05:59:54.019Z,52.70
2019-05-28T06:02:20.721Z,50.60
2019-05-28T06:04:47.910Z,51.32
2019-05-28T06:07:14.693Z,53.23
2019-05-28T06:09:41.492Z,51.12
2019-05-28T06:12:08.257Z,51.63
2019-05-28T06:14:37.876Z,51.83
2019-05-28T06:17:03.814Z,52.39
2019-05-28T06:19:30.887Z,52.42
2019-05-28T06:21:57.568Z,51.87
2019-05-28T06:24:24.434Z,51.49
2019-05-28T06:26:51.172Z,51.78
2019-05-28T06:29:17.855Z,51.35
2019-05-28T06:31:44.613Z,51.58
2019-05-28T06:34:11.488Z,50.60
2019-05-28T06:36:38.284Z,50.09
2019-05-28T06:39:06.712Z,49.72
2019-05-28T06:41:33.474Z,49.45
2019-05-28T06:44:00.232Z,48.42
2019-05-28T06:46:26.952Z,49.19
2019-05-28T06:48:53.720Z,48.30
2019-05-28T06:51:20.463Z,48.45
2019-05-28T06:53:47.314Z,49.82
2019-05-28T06:56:14.238Z,49.37
2019-05-28T06:58:40.968Z,48.71
2019-05-28T07:01:07.948Z,49.13
2019-05-28T07:03:34.888Z,49.33
2019-05-28T07:06:07.253Z,49.55
2019-05-28T07:08:30.222Z,50.95
2019-05-28T07:10:58.554Z,49.40
2019-05-28T07:13:25.489Z,48.60
2019-05-28T07:15:52.199Z,50.59
2019-05-28T07:18:18.930Z,49.50
2019-05-28T07:20:45.638Z,48.29
2019-05-28T07:23:12.334Z,50.02
2019-05-28T07:25:39.161Z,48.88
2019-05-28T07:28:11.131Z,49.19
2019-05-28T07:30:34.464Z,49.16
2019-05-28T07:33:01.321Z,49.25
2019-05-28T07:35:44.280Z,48.49
2019-05-28T07:37:56.612Z,49.61
2019-05-28T07:40:31.554Z,48.05
2019-05-28T07:42:53.365Z,48.45
2019-05-28T07:45:20.058Z,49.05
2019-05-28T07:47:46.872Z,49.91
2019-05-28T07:50:13.798Z,49.29
2019-05-28T07:52:41.469Z,48.51
2019-05-28T07:55:08.245Z,47.94
2019-05-28T07:57:35.279Z,48.39
2019-05-28T08:00:05.278Z,47.70
2019-05-28T08:02:31.000Z,48.67
2019-05-28T08:04:57.854Z,51.09
2019-05-28T08:07:24.527Z,48.06
2019-05-28T08:09:51.433Z,47.79
2019-05-28T08:12:18.215Z,47.87
2019-05-28T08:14:44.896Z,48.11
2019-05-28T08:17:11.836Z,46.53
2019-05-28T08:19:38.597Z,46.16
2019-05-28T08:22:05.346Z,47.17
2019-05-28T08:24:33.449Z,46.73
2019-05-28T08:27:00.339Z,46.60
2019-05-28T08:29:27.099Z,45.57
2019-05-28T08:31:53.972Z,45.82
2019-05-28T08:34:20.694Z,45.87
2019-05-28T08:37:04.520Z,47.05
2019-05-28T08:39:16.228Z,44.88
2019-05-28T08:41:43.006Z,44.43
2019-05-28T08:44:09.772Z,46.85
2019-05-28T08:46:37.034Z,47.78
2019-05-28T08:49:03.825Z,48.36
2019-05-28T08:51:30.539Z,48.30
2019-05-28T08:53:57.507Z,49.76
2019-05-28T08:56:24.256Z,50.56
2019-05-28T08:58:51.331Z,49.14
2019-05-28T09:01:18.182Z,49.27
2019-05-28T09:03:45.033Z,48.97
2019-05-28T09:06:11.816Z,48.54
2019-05-28T09:08:40.239Z,49.11
2019-05-28T09:11:07.891Z,49.79
2019-05-28T09:13:35.147Z,50.14
2019-05-28T09:16:01.900Z,49.64
2019-05-28T09:18:28.582Z,48.93
2019-05-28T09:20:55.372Z,48.91
2019-05-28T09:23:22.236Z,49.57
2019-05-28T09:25:49.241Z,49.43
2019-05-28T09:28:29.030Z,50.06
2019-05-28T09:30:45.013Z,49.54
2019-05-28T09:33:11.727Z,49.67
2019-05-28T09:35:44.781Z,50.16
2019-05-28T09:38:07.691Z,49.91
2019-05-28T09:40:49.409Z,48.83
2019-05-28T09:43:03.124Z,49.28
2019-05-28T09:45:29.883Z,50.18
2019-05-28T09:47:56.692Z,48.96
2019-05-28T09:50:30.749Z,47.54
2019-05-28T09:52:55.267Z,49.02
2019-05-28T09:55:22.174Z,49.65
2019-05-28T09:57:48.971Z,47.96
2019-05-28T10:00:20.641Z,47.93
2019-05-28T10:02:47.450Z,46.92
2019-05-28T10:05:14.548Z,46.36
2019-05-28T10:07:42.236Z,46.62
2019-05-28T10:10:09.111Z,47.00
2019-05-28T10:12:35.867Z,47.41
2019-05-28T10:15:05.737Z,45.95
2019-05-28T10:17:32.459Z,46.57
2019-05-28T10:19:59.141Z,46.62
2019-05-28T10:22:26.222Z,50.15
2019-05-28T10:24:53.033Z,46.06
2019-05-28T10:27:19.753Z,47.44
2019-05-28T10:29:46.543Z,46.78
2019-05-28T10:32:13.255Z,44.07
2019-05-28T10:34:39.987Z,44.38
2019-05-28T10:37:06.854Z,46.48
2019-05-28T10:39:33.666Z,46.05
2019-05-28T10:42:00.780Z,47.44
2019-05-28T10:44:27.702Z,48.46
2019-05-28T10:46:54.388Z,44.26
2019-05-28T10:49:22.110Z,46.12
2019-05-28T10:51:48.850Z,41.39
2019-05-28T10:54:15.601Z,44.64
2019-05-28T10:56:42.316Z,41.81
2019-05-28T10:59:09.146Z,40.90
2019-05-28T11:01:35.913Z,44.32
2019-05-28T11:04:03.472Z,44.54
2019-05-28T11:06:30.340Z,42.33
2019-05-28T11:08:57.113Z,43.24
2019-05-28T11:11:24.071Z,41.27
2019-05-28T11:13:53.563Z,42.42
2019-05-28T11:16:19.520Z,42.43
2019-05-28T11:18:46.398Z,42.75
2019-05-28T11:21:13.075Z,40.66
2019-05-28T11:23:39.861Z,42.06
2019-05-28T11:26:06.551Z,42.41
2019-05-28T11:28:33.245Z,43.00
2019-05-28T11:31:00.093Z,41.25
2019-05-28T11:33:26.785Z,41.23
2019-05-28T11:35:53.470Z,40.07
2019-05-28T11:38:20.217Z,41.70
2019-05-28T11:40:48.014Z,39.13
2019-05-28T11:43:14.701Z,38.78
2019-05-28T11:45:41.529Z,42.80
2019-05-28T11:48:08.351Z,42.07
2019-05-28T11:50:35.145Z,39.43
2019-05-28T11:53:01.891Z,38.71
2019-05-28T11:55:28.592Z,39.01
2019-05-28T11:57:55.264Z,39.19
2019-05-28T12:00:24.587Z,42.08
2019-05-28T12:02:51.479Z,42.30
2019-05-28T12:05:19.028Z,39.49
2019-05-28T12:07:45.747Z,39.36
2019-05-28T12:10:13.157Z,37.91
2019-05-28T12:12:39.846Z,38.05
2019-05-28T12:15:14.579Z,39.05
2019-05-28T12:17:43.053Z,37.94
2019-05-28T12:20:12.741Z,36.83
2019-05-28T12:22:40.221Z,37.68
2019-05-28T12:25:08.699Z,39.44
2019-05-28T12:27:35.424Z,38.46
2019-05-28T12:30:04.089Z,39.03
2019-05-28T12:32:31.062Z,39.14
2019-05-28T12:34:57.732Z,40.20
2019-05-28T12:37:24.425Z,41.75
2019-05-28T12:39:51.641Z,41.86
2019-05-28T12:42:18.528Z,42.52
2019-05-28T12:44:45.496Z,40.97
2019-05-28T12:47:14.763Z,41.06
2019-05-28T12:49:40.852Z,42.71
2019-05-28T12:52:07.688Z,41.72
2019-05-28T12:54:34.530Z,41.52
2019-05-28T12:57:01.217Z,42.02
2019-05-28T12:59:28.137Z,41.51
2019-05-28T13:01:54.986Z,40.00
2019-05-28T13:04:21.707Z,40.81
2019-05-28T13:06:48.473Z,42.73
2019-05-28T13:09:15.400Z,42.86
2019-05-28T13:11:42.169Z,41.90
2019-05-28T13:14:08.853Z,45.01
2019-05-28T13:16:37.521Z,43.20
2019-05-28T13:19:04.208Z,40.25
2019-05-28T13:21:31.214Z,40.00
2019-05-28T13:23:58.078Z,38.90
2019-05-28T13:26:24.848Z,41.83
2019-05-28T13:28:51.541Z,40.92
2019-05-28T13:31:18.652Z,41.44
2019-05-28T13:33:45.368Z,40.53
2019-05-28T13:36:12.058Z,40.97
2019-05-28T13:38:42.556Z,40.75
2019-05-28T13:41:08.634Z,42.20
2019-05-28T13:43:35.323Z,42.03
2019-05-28T13:46:02.090Z,40.88
2019-05-28T13:48:28.948Z,39.54
2019-05-28T13:50:55.663Z,40.46
2019-05-28T13:53:22.670Z,41.72
2019-05-28T13:55:49.443Z,40.68
2019-05-28T13:58:16.158Z,40.34
2019-05-28T14:00:42.910Z,40.76
2019-05-28T14:03:10.214Z,40.25
2019-05-28T14:05:37.834Z,39.46
2019-05-28T14:08:04.632Z,40.85
2019-05-28T14:10:31.430Z,42.90
2019-05-28T14:12:58.181Z,40.32
2019-05-28T14:15:24.868Z,41.73
2019-05-28T14:17:51.538Z,42.40
2019-05-28T14:20:18.929Z,43.20
2019-05-28T14:22:45.793Z,40.89
2019-05-28T14:25:13.739Z,41.83
2019-05-28T14:27:40.627Z,42.41
2019-05-28T14:30:12.315Z,42.84
2019-05-28T14:32:39.000Z,41.81
2019-05-28T14:35:06.849Z,42.20
2019-05-28T14:37:33.624Z,42.12
2019-05-28T14:40:00.303Z,42.42
2019-05-28T14:42:26.975Z,43.58
2019-05-28T14:44:53.663Z,42.44
2019-05-28T14:47:20.409Z,40.23
2019-05-28T14:49:47.098Z,41.89
2019-05-28T14:52:13.859Z,41.38
2019-05-28T14:54:40.644Z,42.24
2019-05-28T14:57:07.362Z,43.04
2019-05-28T14:59:34.033Z,44.38
2019-05-28T15:02:00.809Z,42.52
2019-05-28T15:04:27.591Z,42.08
2019-05-28T15:06:57.213Z,41.77
2019-05-28T15:09:22.925Z,43.73
2019-05-28T15:11:49.610Z,42.93
2019-05-28T15:14:16.301Z,42.62
2019-05-28T15:16:43.091Z,42.82
2019-05-28T15:19:09.717Z,42.87
2019-05-28T15:21:36.406Z,43.07
2019-05-28T15:24:03.182Z,42.32
2019-05-28T15:26:29.949Z,42.62
2019-05-28T15:28:56.622Z,42.96
2019-05-28T15:31:23.298Z,43.75
2019-05-28T15:33:49.964Z,44.64
2019-05-28T15:36:16.753Z,43.63
2019-05-28T15:38:43.395Z,48.05
2019-05-28T15:41:10.151Z,56.91
2019-05-28T15:43:36.898Z,58.48
2019-05-28T15:46:03.743Z,59.04
2019-05-28T15:48:30.423Z,55.96
2019-05-28T15:50:57.129Z,51.15
2019-05-28T15:53:23.891Z,53.42
2019-05-28T15:55:50.652Z,54.33
2019-05-28T15:58:17.316Z,54.49
2019-05-28T16:00:44.095Z,55.41
2019-05-28T16:03:10.803Z,59.14
2019-05-28T16:05:37.885Z,60.53
2019-05-28T16:08:04.651Z,51.95
2019-05-28T16:10:31.383Z,62.01
2019-05-28T16:12:58.174Z,61.45
2019-05-28T16:15:25.042Z,53.54
2019-05-28T16:17:51.707Z,60.97
2019-05-28T16:20:18.768Z,59.42
2019-05-28T16:22:45.452Z,62.65
2019-05-28T16:25:13.626Z,62.20
2019-05-28T16:27:40.391Z,62.72
2019-05-28T16:30:09.542Z,60.91
2019-05-28T16:32:36.414Z,58.57
2019-05-28T16:35:06.072Z,64.63
2019-05-28T16:37:33.736Z,63.58
2019-05-28T16:40:14.019Z,62.49
2019-05-28T16:42:29.174Z,62.38
2019-05-28T16:44:56.442Z,60.52
2019-05-28T16:47:23.254Z,58.39
2019-05-28T16:49:53.057Z,60.85
2019-05-28T16:52:19.728Z,62.14
2019-05-28T16:54:46.475Z,58.53
2019-05-28T16:57:13.221Z,61.91
2019-05-28T16:59:39.938Z,57.37
2019-05-28T17:02:06.599Z,53.73
2019-05-28T17:04:33.340Z,55.90
2019-05-28T17:07:00.037Z,54.82
2019-05-28T17:09:26.747Z,52.56
2019-05-28T17:11:53.457Z,56.60
2019-05-28T17:14:20.289Z,51.26
2019-05-28T17:16:46.942Z,55.88
2019-05-28T17:19:13.731Z,61.08
2019-05-28T17:21:40.555Z,58.39
2019-05-28T17:24:07.373Z,59.63
2019-05-28T17:26:34.235Z,60.05
2019-05-28T17:29:00.997Z,59.09
2019-05-28T17:31:27.767Z,55.26
2019-05-28T17:33:54.463Z,59.96
2019-05-28T17:36:22.329Z,59.69
2019-05-28T17:38:49.146Z,57.22
2019-05-28T17:41:15.835Z,56.32
2019-05-28T17:43:42.634Z,57.26
2019-05-28T17:46:09.273Z,59.22
2019-05-28T17:48:36.165Z,59.98
2019-05-28T17:51:02.832Z,60.20
2019-05-28T17:53:29.579Z,61.93
2019-05-28T17:55:56.320Z,59.30
2019-05-28T17:58:23.067Z,61.06
2019-05-28T18:00:49.820Z,55.51
2019-05-28T18:03:16.522Z,56.53
2019-05-28T18:05:43.223Z,61.46
2019-05-28T18:08:10.022Z,55.18
2019-05-28T18:10:36.729Z,56.47
2019-05-28T18:13:03.422Z,55.67
2019-05-28T18:15:31.488Z,52.97
2019-05-28T18:17:58.170Z,59.50
2019-05-28T18:20:26.193Z,61.06
2019-05-28T18:22:52.986Z,58.62
2019-05-28T18:25:20.646Z,60.40
2019-05-28T18:27:47.868Z,60.48
2019-05-28T18:30:15.272Z,59.11
2019-05-28T18:32:41.944Z,61.46
2019-05-28T18:35:09.084Z,61.72
2019-05-28T18:37:36.062Z,60.14
2019-05-28T18:40:05.486Z,58.56
2019-05-28T18:42:32.192Z,63.07
2019-05-28T18:44:58.951Z,61.94
2019-05-28T18:47:25.750Z,60.61
2019-05-28T18:49:52.622Z,56.75
2019-05-28T18:52:19.423Z,53.88
2019-05-28T18:54:46.081Z,53.93
2019-05-28T18:57:12.819Z,57.04
2019-05-28T18:59:39.800Z,51.36
2019-05-28T19:02:06.714Z,47.71
2019-05-28T19:04:33.558Z,50.94
2019-05-28T19:07:00.242Z,54.39
2019-05-28T19:09:26.940Z,53.06
2019-05-28T19:11:53.723Z,50.01
2019-05-28T19:14:20.525Z,53.35
2019-05-28T19:16:47.488Z,53.51
2019-05-28T19:19:15.335Z,52.56
2019-05-28T19:21:42.032Z,52.90
2019-05-28T19:24:08.934Z,52.65
2019-05-28T19:26:35.616Z,53.53
2019-05-28T19:29:02.580Z,53.38
2019-05-28T19:31:29.417Z,51.41
2019-05-28T19:33:56.783Z,55.33
2019-05-28T19:36:24.083Z,54.13
2019-05-28T19:38:51.484Z,52.86
2019-05-28T19:41:18.471Z,55.11
2019-05-28T19:43:45.291Z,54.04
2019-05-28T19:46:11.988Z,58.41
2019-05-28T19:48:38.683Z,56.57
2019-05-28T19:51:05.369Z,54.13
2019-05-28T19:53:32.208Z,58.72
2019-05-28T19:55:58.934Z,58.13
2019-05-28T19:58:25.940Z,57.68
2019-05-28T20:00:52.694Z,57.27
2019-05-28T20:03:19.405Z,56.58
2019-05-28T20:05:46.170Z,56.59
2019-05-28T20:08:12.938Z,56.92
2019-05-28T20:10:40.445Z,57.46
2019-05-28T20:13:07.501Z,56.60
2019-05-28T20:15:34.175Z,59.60
2019-05-28T20:18:00.868Z,59.76
2019-05-28T20:20:27.610Z,58.62
2019-05-28T20:22:54.322Z,59.13
2019-05-28T20:25:21.388Z,59.44
2019-05-28T20:27:48.213Z,59.53
2019-05-28T20:30:16.009Z,62.21
2019-05-28T20:32:42.795Z,61.26
2019-05-28T20:35:09.792Z,62.10
2019-05-28T20:37:36.690Z,63.41
2019-05-28T20:40:06.091Z,63.56
2019-05-28T20:42:35.803Z,63.53
2019-05-28T20:45:06.636Z,63.46
2019-05-28T20:47:33.367Z,65.14
2019-05-28T20:50:00.757Z,65.06
2019-05-28T20:52:27.645Z,63.62
2019-05-28T20:54:55.111Z,64.44
2019-05-28T20:57:21.993Z,65.19
2019-05-28T20:59:49.519Z,65.61
2019-05-28T21:02:19.145Z,63.36
2019-05-28T21:04:45.265Z,64.01
2019-05-28T21:07:12.014Z,66.42
2019-05-28T21:09:38.747Z,63.98
2019-05-28T21:12:05.551Z,64.18
2019-05-28T21:14:32.250Z,65.11
2019-05-28T21:16:59.239Z,63.76
2019-05-28T21:19:26.112Z,63.93
2019-05-28T21:21:53.710Z,64.80
2019-05-28T21:24:20.589Z,65.16
2019-05-28T21:26:47.344Z,62.97
2019-05-28T21:29:14.061Z,66.04
2019-05-28T21:31:40.770Z,64.79
2019-05-28T21:34:07.569Z,64.59
2019-05-28T21:36:34.469Z,65.79
2019-05-28T21:39:03.893Z,68.18
2019-05-28T21:41:30.967Z,66.35
2019-05-28T21:43:58.011Z,66.27
2019-05-28T21:46:24.880Z,66.78
2019-05-28T21:48:52.332Z,66.85
2019-05-28T21:51:19.159Z,67.08
2019-05-28T21:53:45.868Z,68.49
2019-05-28T21:56:13.850Z,68.49
2019-05-28T21:58:40.531Z,68.80
2019-05-28T22:01:16.985Z,68.28
2019-05-28T22:03:43.665Z,68.74
2019-05-28T22:06:10.411Z,68.54
2019-05-28T22:08:37.199Z,69.08
2019-05-28T22:11:04.027Z,68.45
2019-05-28T22:13:30.754Z,69.00
2019-05-28T22:15:58.059Z,71.70
2019-05-28T22:18:24.992Z,69.88
2019-05-28T22:20:51.667Z,70.13
2019-05-28T22:23:18.450Z,69.85
2019-05-28T22:25:45.159Z,70.35
2019-05-28T22:28:12.004Z,70.69
2019-05-28T22:30:38.728Z,71.04
2019-05-28T22:33:05.392Z,71.05
2019-05-28T22:35:32.250Z,71.83
2019-05-28T22:37:59.228Z,70.83
2019-05-28T22:40:26.383Z,70.96
2019-05-28T22:42:53.153Z,71.03
2019-05-28T22:45:20.127Z,71.34
2019-05-28T22:47:46.821Z,71.32
2019-05-28T22:50:22.553Z,72.18
2019-05-28T22:52:44.419Z,72.16
2019-05-28T22:55:11.575Z,72.77
2019-05-28T22:57:38.252Z,72.58
2019-05-28T23:00:06.718Z,73.64
2019-05-28T23:02:33.709Z,73.22
2019-05-28T23:05:01.037Z,73.27
2019-05-28T23:07:27.916Z,73.43
2019-05-28T23:09:54.637Z,74.42
2019-05-28T23:12:21.672Z,74.05
2019-05-28T23:14:48.737Z,73.50
2019-05-28T23:17:15.445Z,74.19
2019-05-28T23:19:42.146Z,73.58
2019-05-28T23:22:09.087Z,73.66
2019-05-28T23:24:35.822Z,74.23
2019-05-28T23:27:03.535Z,74.25
2019-05-28T23:29:30.542Z,74.77
2019-05-28T23:31:57.286Z,75.78
2019-05-28T23:34:23.928Z,75.70
2019-05-28T23:36:50.606Z,75.51
2019-05-28T23:39:17.273Z,75.84
2019-05-28T23:41:44.017Z,75.64
2019-05-28T23:44:11.654Z,75.99
2019-05-28T23:46:38.565Z,75.54
2019-05-28T23:49:06.092Z,75.85
2019-05-28T23:51:33.023Z,75.97
2019-05-28T23:53:59.716Z,76.95
2019-05-28T23:56:26.494Z,76.02
2019-05-28T23:58:53.280Z,77.13
